Terminal Aerodrome Forecast
Issued by NWS

Home | Current Version | Previous Version | Text Only | Print | Product List | Glossary On
Versions: 1 2 3 4 5 6 7 8 9 10 11 12 13 14
000
FTUS45 KPIH 222320
TAFSUN
TAF
KSUN 222320Z 2300/2324 32010KT P6SM -SHRA VCTS SCT040CB OVC090
     FM230500 31009KT P6SM VCSH BKN060
     FM231400 33008KT P6SM SCT050 SCT120
     FM231900 13008KT P6SM -SHRA VCTS SCT050CB OVC070
      AMD LTD TO CLD VIS AND WIND 2305/2313=

USA.gov is the U.S. government's official web portal to all federal, state and local government web resources and services.